sensor_id;sensor_type;location;lat;lon;timestamp;pressure;altitude;pressure_sealevel;temperature;humidity
51829;BME280;37881;48.024;8.774;2023-06-04T00:01:23;93857.44;;;13.14;100.00
51829;BME280;37881;48.024;8.774;2023-06-04T00:03:50;93860.38;;;13.07;100.00
51829;BME280;37881;48.024;8.774;2023-06-04T00:06:17;93859.88;;;12.96;100.00
51829;BME280;37881;48.024;8.774;2023-06-04T00:08:44;93854.00;;;13.10;100.00
51829;BME280;37881;48.024;8.774;2023-06-04T00:11:10;93854.19;;;13.03;100.00
51829;BME280;37881;48.024;8.774;2023-06-04T00:13:37;93854.72;;;12.98;100.00
51829;BME280;37881;48.024;8.774;2023-06-04T00:16:04;93850.16;;;12.75;100.00
51829;BME280;37881;48.024;8.774;2023-06-04T00:18:31;93856.69;;;12.81;100.00
51829;BME280;37881;48.024;8.774;2023-06-04T00:20:57;93846.38;;;12.69;100.00
51829;BME280;37881;48.024;8.774;2023-06-04T00:23:24;93854.56;;;12.72;100.00
51829;BME280;37881;48.024;8.774;2023-06-04T00:25:51;93847.69;;;12.81;100.00
51829;BME280;37881;48.024;8.774;2023-06-04T00:28:18;93851.78;;;12.89;100.00
51829;BME280;37881;48.024;8.774;2023-06-04T00:30:44;93855.16;;;12.80;100.00
51829;BME280;37881;48.024;8.774;2023-06-04T00:33:11;93859.38;;;12.52;100.00
51829;BME280;37881;48.024;8.774;2023-06-04T00:35:38;93857.81;;;12.34;100.00
51829;BME280;37881;48.024;8.774;2023-06-04T00:38:05;93860.56;;;12.34;100.00
51829;BME280;37881;48.024;8.774;2023-06-04T00:40:31;93857.66;;;12.42;100.00
51829;BME280;37881;48.024;8.774;2023-06-04T00:42:58;93849.91;;;12.53;100.00
51829;BME280;37881;48.024;8.774;2023-06-04T00:45:25;93849.91;;;12.53;100.00
51829;BME280;37881;48.024;8.774;2023-06-04T00:47:52;93858.09;;;12.56;100.00
51829;BME280;37881;48.024;8.774;2023-06-04T00:50:19;93856.53;;;12.55;100.00
51829;BME280;37881;48.024;8.774;2023-06-04T00:52:48;93851.38;;;12.57;100.00
51829;BME280;37881;48.024;8.774;2023-06-04T00:55:16;93853.88;;;12.35;100.00
51829;BME280;37881;48.024;8.774;2023-06-04T00:57:46;93854.63;;;12.36;100.00
51829;BME280;37881;48.024;8.774;2023-06-04T01:00:13;93856.44;;;12.43;100.00
51829;BME280;37881;48.024;8.774;2023-06-04T01:02:41;93854.56;;;12.39;100.00
51829;BME280;37881;48.024;8.774;2023-06-04T01:08:09;93845.03;;;11.91;100.00
51829;BME280;37881;48.024;8.774;2023-06-04T01:10:37;93858.25;;;11.56;100.00
51829;BME280;37881;48.024;8.774;2023-06-04T01:13:03;93860.53;;;11.62;100.00
51829;BME280;37881;48.024;8.774;2023-06-04T01:15:30;93859.94;;;11.70;100.00
51829;BME280;37881;48.024;8.774;2023-06-04T01:18:00;93851.41;;;11.85;100.00
51829;BME280;37881;48.024;8.774;2023-06-04T01:20:44;93850.53;;;11.91;100.00
51829;BME280;37881;48.024;8.774;2023-06-04T01:26:02;93862.75;;;12.07;100.00
51829;BME280;37881;48.024;8.774;2023-06-04T01:28:34;93851.31;;;12.08;100.00
51829;BME280;37881;48.024;8.774;2023-06-04T01:31:02;93859.66;;;12.05;100.00
51829;BME280;37881;48.024;8.774;2023-06-04T01:33:30;93854.66;;;11.99;100.00
51829;BME280;37881;48.024;8.774;2023-06-04T01:35:58;93849.66;;;11.94;100.00
51829;BME280;37881;48.024;8.774;2023-06-04T01:38:25;93860.44;;;11.85;100.00
51829;BME280;37881;48.024;8.774;2023-06-04T01:40:51;93852.91;;;11.69;100.00
51829;BME280;37881;48.024;8.774;2023-06-04T01:43:22;93857.47;;;11.76;100.00
51829;BME280;37881;48.024;8.774;2023-06-04T01:45:49;93848.13;;;11.53;100.00
51829;BME280;37881;48.024;8.774;2023-06-04T01:48:16;93852.69;;;11.60;100.00
51829;BME280;37881;48.024;8.774;2023-06-04T01:50:43;93850.22;;;11.66;100.00
51829;BME280;37881;48.024;8.774;2023-06-04T01:53:10;93854.53;;;11.47;100.00
51829;BME280;37881;48.024;8.774;2023-06-04T01:55:36;93857.13;;;11.54;100.00
51829;BME280;37881;48.024;8.774;2023-06-04T01:58:04;93851.94;;;11.59;100.00
51829;BME280;37881;48.024;8.774;2023-06-04T02:00:31;93862.75;;;11.27;100.00
51829;BME280;37881;48.024;8.774;2023-06-04T02:02:58;93857.50;;;11.36;100.00
51829;BME280;37881;48.024;8.774;2023-06-04T02:05:26;93861.88;;;11.33;100.00
51829;BME280;37881;48.024;8.774;2023-06-04T02:07:53;93860.34;;;11.29;100.00
51829;BME280;37881;48.024;8.774;2023-06-04T02:10:20;93866.44;;;11.40;100.00
51829;BME280;37881;48.024;8.774;2023-06-04T02:13:01;93867.50;;;10.83;100.00
51829;BME280;37881;48.024;8.774;2023-06-04T02:15:31;93864.88;;;11.19;100.00
51829;BME280;37881;48.024;8.774;2023-06-04T02:18:19;93869.81;;;11.28;100.00
51829;BME280;37881;48.024;8.774;2023-06-04T02:20:50;93859.13;;;11.33;100.00
51829;BME280;37881;48.024;8.774;2023-06-04T02:23:18;93862.50;;;11.41;100.00
51829;BME280;37881;48.024;8.774;2023-06-04T02:25:46;93855.31;;;11.47;100.00
51829;BME280;37881;48.024;8.774;2023-06-04T02:28:13;93853.28;;;11.51;100.00
51829;BME280;37881;48.024;8.774;2023-06-04T02:30:40;93853.13;;;11.38;100.00
51829;BME280;37881;48.024;8.774;2023-06-04T02:33:06;93860.75;;;11.31;100.00
51829;BME280;37881;48.024;8.774;2023-06-04T02:35:36;93853.75;;;11.26;100.00
51829;BME280;37881;48.024;8.774;2023-06-04T02:38:04;93857.25;;;11.27;100.00
51829;BME280;37881;48.024;8.774;2023-06-04T02:40:31;93858.78;;;11.08;100.00
51829;BME280;37881;48.024;8.774;2023-06-04T02:42:58;93855.06;;;11.18;100.00
51829;BME280;37881;48.024;8.774;2023-06-04T02:45:25;93854.88;;;10.85;100.00
51829;BME280;37881;48.024;8.774;2023-06-04T02:47:52;93854.94;;;10.82;100.00
51829;BME280;37881;48.024;8.774;2023-06-04T02:50:19;93860.25;;;10.69;100.00
51829;BME280;37881;48.024;8.774;2023-06-04T02:52:46;93855.28;;;10.84;100.00
51829;BME280;37881;48.024;8.774;2023-06-04T02:55:13;93859.53;;;10.88;100.00
51829;BME280;37881;48.024;8.774;2023-06-04T02:57:43;93859.81;;;10.94;100.00
51829;BME280;37881;48.024;8.774;2023-06-04T03:00:11;93858.41;;;10.86;100.00
51829;BME280;37881;48.024;8.774;2023-06-04T03:02:46;93862.28;;;10.65;100.00
51829;BME280;37881;48.024;8.774;2023-06-04T03:05:15;93857.09;;;10.47;100.00
51829;BME280;37881;48.024;8.774;2023-06-04T03:07:45;93858.03;;;10.60;100.00
51829;BME280;37881;48.024;8.774;2023-06-04T03:10:13;93866.78;;;10.78;100.00
51829;BME280;37881;48.024;8.774;2023-06-04T03:12:41;93863.63;;;10.76;100.00
51829;BME280;37881;48.024;8.774;2023-06-04T03:15:09;93868.97;;;10.87;100.00
51829;BME280;37881;48.024;8.774;2023-06-04T03:17:36;93872.78;;;10.70;100.00
51829;BME280;37881;48.024;8.774;2023-06-04T03:20:04;93873.56;;;10.47;100.00
51829;BME280;37881;48.024;8.774;2023-06-04T03:22:31;93883.81;;;10.12;100.00
51829;BME280;37881;48.024;8.774;2023-06-04T03:25:00;93887.41;;;10.36;100.00
51829;BME280;37881;48.024;8.774;2023-06-04T03:27:27;93880.78;;;10.33;100.00
51829;BME280;37881;48.024;8.774;2023-06-04T03:29:54;93876.03;;;10.37;100.00
51829;BME280;37881;48.024;8.774;2023-06-04T03:32:21;93882.91;;;10.49;100.00
51829;BME280;37881;48.024;8.774;2023-06-04T03:34:48;93881.59;;;10.57;100.00
51829;BME280;37881;48.024;8.774;2023-06-04T03:37:14;93883.41;;;10.68;100.00
51829;BME280;37881;48.024;8.774;2023-06-04T03:39:41;93886.84;;;10.48;100.00
51829;BME280;37881;48.024;8.774;2023-06-04T03:42:08;93882.81;;;10.56;100.00
51829;BME280;37881;48.024;8.774;2023-06-04T03:44:35;93886.19;;;10.64;100.00
51829;BME280;37881;48.024;8.774;2023-06-04T03:47:01;93895.97;;;10.42;100.00
51829;BME280;37881;48.024;8.774;2023-06-04T03:49:28;93904.66;;;10.06;100.00
51829;BME280;37881;48.024;8.774;2023-06-04T03:51:55;93893.63;;;10.40;100.00
51829;BME280;37881;48.024;8.774;2023-06-04T03:54:22;93897.75;;;10.52;100.00
51829;BME280;37881;48.024;8.774;2023-06-04T03:56:49;93896.00;;;10.65;100.00
51829;BME280;37881;48.024;8.774;2023-06-04T03:59:16;93901.59;;;10.82;100.00
51829;BME280;37881;48.024;8.774;2023-06-04T04:01:43;93896.28;;;10.94;100.00
51829;BME280;37881;48.024;8.774;2023-06-04T04:04:10;93902.38;;;11.06;100.00
51829;BME280;37881;48.024;8.774;2023-06-04T04:06:37;93899.53;;;11.13;100.00
51829;BME280;37881;48.024;8.774;2023-06-04T04:09:04;93901.34;;;11.19;100.00
51829;BME280;37881;48.024;8.774;2023-06-04T04:11:33;93900.31;;;11.33;100.00
51829;BME280;37881;48.024;8.774;2023-06-04T04:14:00;93906.13;;;11.39;100.00
51829;BME280;37881;48.024;8.774;2023-06-04T04:16:27;93912.47;;;11.56;100.00
51829;BME280;37881;48.024;8.774;2023-06-04T04:18:54;93909.22;;;11.61;100.00
51829;BME280;37881;48.024;8.774;2023-06-04T04:21:21;93913.44;;;11.46;100.00
51829;BME280;37881;48.024;8.774;2023-06-04T04:23:49;93911.97;;;11.61;100.00
51829;BME280;37881;48.024;8.774;2023-06-04T04:26:17;93904.78;;;11.87;100.00
51829;BME280;37881;48.024;8.774;2023-06-04T04:28:44;93905.88;;;11.93;100.00
51829;BME280;37881;48.024;8.774;2023-06-04T04:31:11;93911.03;;;11.91;100.00
51829;BME280;37881;48.024;8.774;2023-06-04T04:33:38;93910.28;;;12.07;100.00
51829;BME280;37881;48.024;8.774;2023-06-04T04:36:07;93913.00;;;12.27;100.00
51829;BME280;37881;48.024;8.774;2023-06-04T04:38:39;93914.09;;;12.50;100.00
51829;BME280;37881;48.024;8.774;2023-06-04T04:41:07;93914.03;;;12.70;100.00
51829;BME280;37881;48.024;8.774;2023-06-04T04:43:36;93918.66;;;12.89;100.00
51829;BME280;37881;48.024;8.774;2023-06-04T04:46:04;93918.50;;;12.96;100.00
51829;BME280;37881;48.024;8.774;2023-06-04T04:48:31;93909.72;;;13.18;100.00
51829;BME280;37881;48.024;8.774;2023-06-04T04:50:58;93906.84;;;13.22;100.00
51829;BME280;37881;48.024;8.774;2023-06-04T04:53:26;93908.84;;;13.37;100.00
51829;BME280;37881;48.024;8.774;2023-06-04T04:55:52;93915.13;;;13.22;100.00
51829;BME280;37881;48.024;8.774;2023-06-04T04:58:19;93914.56;;;13.30;100.00
51829;BME280;37881;48.024;8.774;2023-06-04T05:00:46;93914.22;;;13.57;100.00
51829;BME280;37881;48.024;8.774;2023-06-04T05:03:14;93912.81;;;13.66;100.00
51829;BME280;37881;48.024;8.774;2023-06-04T05:05:41;93919.47;;;13.52;100.00
51829;BME280;37881;48.024;8.774;2023-06-04T05:08:08;93905.13;;;13.44;100.00
51829;BME280;37881;48.024;8.774;2023-06-04T05:10:35;93904.78;;;13.42;100.00
51829;BME280;37881;48.024;8.774;2023-06-04T05:13:02;93910.66;;;13.73;100.00
51829;BME280;37881;48.024;8.774;2023-06-04T05:15:31;93908.72;;;13.99;100.00
51829;BME280;37881;48.024;8.774;2023-06-04T05:17:58;93911.88;;;14.27;100.00
51829;BME280;37881;48.024;8.774;2023-06-04T05:20:27;93908.41;;;13.97;100.00
51829;BME280;37881;48.024;8.774;2023-06-04T05:22:54;93915.03;;;14.00;100.00
51829;BME280;37881;48.024;8.774;2023-06-04T05:25:22;93922.00;;;13.75;100.00
51829;BME280;37881;48.024;8.774;2023-06-04T05:27:49;93925.53;;;14.05;100.00
51829;BME280;37881;48.024;8.774;2023-06-04T05:30:16;93926.91;;;14.39;100.00
51829;BME280;37881;48.024;8.774;2023-06-04T05:32:43;93931.59;;;14.68;100.00
51829;BME280;37881;48.024;8.774;2023-06-04T05:35:10;93923.81;;;13.53;100.00
51829;BME280;37881;48.024;8.774;2023-06-04T05:37:38;93927.47;;;13.92;100.00
51829;BME280;37881;48.024;8.774;2023-06-04T05:40:07;93926.88;;;13.84;100.00
51829;BME280;37881;48.024;8.774;2023-06-04T05:42:34;93923.59;;;14.44;100.00
51829;BME280;37881;48.024;8.774;2023-06-04T05:45:01;93918.13;;;18.54;93.77
51829;BME280;37881;48.024;8.774;2023-06-04T05:47:28;93923.00;;;18.17;92.06
51829;BME280;37881;48.024;8.774;2023-06-04T05:49:58;93920.13;;;20.56;78.30
51829;BME280;37881;48.024;8.774;2023-06-04T05:52:24;93913.47;;;22.57;69.86
51829;BME280;37881;48.024;8.774;2023-06-04T05:54:51;93918.63;;;23.65;60.61
51829;BME280;37881;48.024;8.774;2023-06-04T05:57:20;93913.69;;;23.11;57.78
51829;BME280;37881;48.024;8.774;2023-06-04T05:59:47;93927.66;;;20.65;65.86
51829;BME280;37881;48.024;8.774;2023-06-04T06:02:14;93919.09;;;21.33;63.30
51829;BME280;37881;48.024;8.774;2023-06-04T06:04:41;93929.25;;;21.37;62.59
51829;BME280;37881;48.024;8.774;2023-06-04T06:07:08;93919.31;;;21.15;62.78
51829;BME280;37881;48.024;8.774;2023-06-04T06:09:34;93932.50;;;22.52;58.00
51829;BME280;37881;48.024;8.774;2023-06-04T06:12:02;93937.56;;;21.87;60.62
51829;BME280;37881;48.024;8.774;2023-06-04T06:14:29;93923.44;;;24.13;54.13
51829;BME280;37881;48.024;8.774;2023-06-04T06:16:56;93925.41;;;25.51;49.74
51829;BME280;37881;48.024;8.774;2023-06-04T06:19:23;93927.28;;;27.62;43.63
51829;BME280;37881;48.024;8.774;2023-06-04T06:21:50;93929.16;;;27.54;40.40
51829;BME280;37881;48.024;8.774;2023-06-04T06:24:17;93934.06;;;27.23;40.19
51829;BME280;37881;48.024;8.774;2023-06-04T06:26:43;93942.94;;;25.97;45.14
51829;BME280;37881;48.024;8.774;2023-06-04T06:29:10;93941.34;;;27.07;42.66
51829;BME280;37881;48.024;8.774;2023-06-04T06:31:37;93941.72;;;28.27;40.18
51829;BME280;37881;48.024;8.774;2023-06-04T06:34:04;93943.16;;;28.15;39.00
51829;BME280;37881;48.024;8.774;2023-06-04T06:36:31;93943.84;;;28.64;36.56
51829;BME280;37881;48.024;8.774;2023-06-04T06:38:59;93945.06;;;27.21;38.45
51829;BME280;37881;48.024;8.774;2023-06-04T06:41:26;93940.13;;;28.56;37.11
51829;BME280;37881;48.024;8.774;2023-06-04T06:43:53;93935.59;;;29.37;35.34
51829;BME280;37881;48.024;8.774;2023-06-04T06:46:19;93934.94;;;30.16;33.62
51829;BME280;37881;48.024;8.774;2023-06-04T06:48:46;93935.66;;;28.99;35.08
51829;BME280;37881;48.024;8.774;2023-06-04T06:51:14;93943.44;;;28.36;36.47
51829;BME280;37881;48.024;8.774;2023-06-04T06:53:41;93936.56;;;29.72;33.61
51829;BME280;37881;48.024;8.774;2023-06-04T06:56:08;93937.13;;;30.98;32.60
51829;BME280;37881;48.024;8.774;2023-06-04T06:58:35;93938.13;;;31.21;30.54
51829;BME280;37881;48.024;8.774;2023-06-04T07:01:02;93943.56;;;30.51;32.24
51829;BME280;37881;48.024;8.774;2023-06-04T07:03:29;93943.94;;;31.16;30.62
51829;BME280;37881;48.024;8.774;2023-06-04T07:05:56;93941.22;;;33.03;27.66
51829;BME280;37881;48.024;8.774;2023-06-04T07:08:23;93940.75;;;32.76;28.28
51829;BME280;37881;48.024;8.774;2023-06-04T07:10:50;93941.19;;;33.71;27.34
51829;BME280;37881;48.024;8.774;2023-06-04T07:13:16;93938.00;;;35.17;25.30
51829;BME280;37881;48.024;8.774;2023-06-04T07:15:43;93938.59;;;35.08;24.67
51829;BME280;37881;48.024;8.774;2023-06-04T07:18:10;93930.28;;;35.35;25.00
51829;BME280;37881;48.024;8.774;2023-06-04T07:20:37;93927.78;;;36.84;23.54
51829;BME280;37881;48.024;8.774;2023-06-04T07:23:04;93927.09;;;36.93;23.16
51829;BME280;37881;48.024;8.774;2023-06-04T07:25:30;93920.63;;;35.80;23.03
51829;BME280;37881;48.024;8.774;2023-06-04T07:27:57;93929.56;;;33.46;24.70
51829;BME280;37881;48.024;8.774;2023-06-04T07:30:27;93919.13;;;33.94;25.63
51829;BME280;37881;48.024;8.774;2023-06-04T07:32:54;93919.38;;;35.16;23.84
51829;BME280;37881;48.024;8.774;2023-06-04T07:35:21;93915.13;;;34.84;24.53
51829;BME280;37881;48.024;8.774;2023-06-04T07:37:49;93916.50;;;35.74;23.52
51829;BME280;37881;48.024;8.774;2023-06-04T07:40:17;93917.34;;;36.44;22.64
51829;BME280;37881;48.024;8.774;2023-06-04T07:42:45;93914.88;;;36.06;22.74
51829;BME280;37881;48.024;8.774;2023-06-04T07:45:14;93913.59;;;36.59;22.07
51829;BME280;37881;48.024;8.774;2023-06-04T07:47:42;93915.84;;;36.26;22.34
51829;BME280;37881;48.024;8.774;2023-06-04T07:50:10;93910.47;;;36.82;21.80
51829;BME280;37881;48.024;8.774;2023-06-04T07:52:37;93919.00;;;36.99;22.02
51829;BME280;37881;48.024;8.774;2023-06-04T07:55:04;93921.94;;;32.29;24.87
51829;BME280;37881;48.024;8.774;2023-06-04T07:57:31;93912.38;;;32.40;24.87
51829;BME280;37881;48.024;8.774;2023-06-04T07:59:58;93914.41;;;31.32;26.01
51829;BME280;37881;48.024;8.774;2023-06-04T08:02:25;93922.00;;;30.82;27.94
51829;BME280;37881;48.024;8.774;2023-06-04T08:04:52;93911.56;;;33.97;24.67
51829;BME280;37881;48.024;8.774;2023-06-04T08:07:19;93911.41;;;34.58;23.10
51829;BME280;37881;48.024;8.774;2023-06-04T08:09:46;93920.78;;;34.44;22.19
51829;BME280;37881;48.024;8.774;2023-06-04T08:12:13;93920.72;;;28.66;28.33
51829;BME280;37881;48.024;8.774;2023-06-04T08:14:40;93917.50;;;28.75;28.59
51829;BME280;37881;48.024;8.774;2023-06-04T08:17:06;93916.56;;;30.10;27.65
51829;BME280;37881;48.024;8.774;2023-06-04T08:19:33;93927.50;;;26.74;30.58
51829;BME280;37881;48.024;8.774;2023-06-04T08:22:00;93926.56;;;28.30;29.75
51829;BME280;37881;48.024;8.774;2023-06-04T08:24:27;93920.84;;;29.44;27.88
51829;BME280;37881;48.024;8.774;2023-06-04T08:26:53;93919.47;;;26.89;29.65
51829;BME280;37881;48.024;8.774;2023-06-04T08:29:20;93926.19;;;26.80;30.07
51829;BME280;37881;48.024;8.774;2023-06-04T08:31:47;93916.75;;;27.08;30.50
51829;BME280;37881;48.024;8.774;2023-06-04T08:34:14;93917.63;;;29.02;28.70
51829;BME280;37881;48.024;8.774;2023-06-04T08:36:40;93914.56;;;28.67;28.67
51829;BME280;37881;48.024;8.774;2023-06-04T08:39:08;93923.41;;;29.28;27.01
51829;BME280;37881;48.024;8.774;2023-06-04T08:41:44;93918.22;;;29.14;27.79
51829;BME280;37881;48.024;8.774;2023-06-04T08:44:11;93922.28;;;31.05;25.51
51829;BME280;37881;48.024;8.774;2023-06-04T08:46:39;93920.56;;;29.28;26.97
51829;BME280;37881;48.024;8.774;2023-06-04T08:49:07;93938.31;;;24.47;32.63
51829;BME280;37881;48.024;8.774;2023-06-04T08:51:36;93922.97;;;26.01;30.28
51829;BME280;37881;48.024;8.774;2023-06-04T08:54:08;93933.00;;;25.90;30.83
51829;BME280;37881;48.024;8.774;2023-06-04T08:56:35;93928.78;;;29.59;27.08
51829;BME280;37881;48.024;8.774;2023-06-04T08:59:04;93933.19;;;31.01;25.08
51829;BME280;37881;48.024;8.774;2023-06-04T09:01:34;93934.25;;;31.11;25.40
51829;BME280;37881;48.024;8.774;2023-06-04T09:04:04;93943.28;;;28.28;27.69
51829;BME280;37881;48.024;8.774;2023-06-04T09:06:35;93941.91;;;25.89;31.18
51829;BME280;37881;48.024;8.774;2023-06-04T09:09:04;93939.03;;;26.17;30.61
51829;BME280;37881;48.024;8.774;2023-06-04T09:11:36;93943.78;;;25.13;32.18
51829;BME280;37881;48.024;8.774;2023-06-04T09:14:07;93932.06;;;26.29;30.95
51829;BME280;37881;48.024;8.774;2023-06-04T09:16:51;93930.28;;;25.34;31.75
51829;BME280;37881;48.024;8.774;2023-06-04T09:19:18;93941.22;;;24.92;32.75
51829;BME280;37881;48.024;8.774;2023-06-04T09:24:15;93935.50;;;27.60;28.73
51829;BME280;37881;48.024;8.774;2023-06-04T09:26:42;93938.44;;;25.04;32.15
51829;BME280;37881;48.024;8.774;2023-06-04T09:29:09;93942.47;;;23.98;33.84
51829;BME280;37881;48.024;8.774;2023-06-04T09:31:36;93945.44;;;24.48;33.49
51829;BME280;37881;48.024;8.774;2023-06-04T09:34:03;93942.75;;;25.56;32.47
51829;BME280;37881;48.024;8.774;2023-06-04T09:36:31;93932.66;;;26.05;31.83
51829;BME280;37881;48.024;8.774;2023-06-04T09:38:58;93942.00;;;25.10;33.06
51829;BME280;37881;48.024;8.774;2023-06-04T09:41:25;93948.19;;;23.71;34.72
51829;BME280;37881;48.024;8.774;2023-06-04T09:44:02;93944.25;;;23.52;35.88
51829;BME280;37881;48.024;8.774;2023-06-04T09:46:30;93933.88;;;24.12;34.29
51829;BME280;37881;48.024;8.774;2023-06-04T09:49:03;93930.81;;;24.10;34.52
51829;BME280;37881;48.024;8.774;2023-06-04T09:51:30;93934.91;;;24.15;34.22
51829;BME280;37881;48.024;8.774;2023-06-04T09:53:59;93933.00;;;23.84;35.07
51829;BME280;37881;48.024;8.774;2023-06-04T09:56:27;93937.03;;;24.43;34.01
51829;BME280;37881;48.024;8.774;2023-06-04T09:58:58;93937.34;;;24.56;34.72
51829;BME280;37881;48.024;8.774;2023-06-04T10:01:29;93942.25;;;23.58;35.84
51829;BME280;37881;48.024;8.774;2023-06-04T10:03:58;93943.19;;;24.47;34.62
51829;BME280;37881;48.024;8.774;2023-06-04T10:06:33;93941.34;;;24.38;34.74
51829;BME280;37881;48.024;8.774;2023-06-04T10:09:05;93945.81;;;25.12;34.57
51829;BME280;37881;48.024;8.774;2023-06-04T10:11:35;93933.63;;;24.16;34.43
51829;BME280;37881;48.024;8.774;2023-06-04T10:16:37;93928.63;;;29.97;27.17
51829;BME280;37881;48.024;8.774;2023-06-04T10:19:07;93931.88;;;29.09;28.20
51829;BME280;37881;48.024;8.774;2023-06-04T10:21:34;93941.13;;;28.15;28.25
51829;BME280;37881;48.024;8.774;2023-06-04T10:24:02;93954.41;;;22.13;37.75
51829;BME280;37881;48.024;8.774;2023-06-04T10:26:29;93943.50;;;24.66;34.15
51829;BME280;37881;48.024;8.774;2023-06-04T10:29:00;93933.69;;;28.94;28.72
51829;BME280;37881;48.024;8.774;2023-06-04T10:31:27;93935.31;;;27.53;30.36
51829;BME280;37881;48.024;8.774;2023-06-04T10:33:55;93933.88;;;28.63;29.27
51829;BME280;37881;48.024;8.774;2023-06-04T10:36:23;93930.78;;;28.61;28.77
51829;BME280;37881;48.024;8.774;2023-06-04T10:38:52;93936.03;;;26.62;30.07
51829;BME280;37881;48.024;8.774;2023-06-04T10:41:23;93947.28;;;25.87;32.20
51829;BME280;37881;48.024;8.774;2023-06-04T10:44:00;93953.31;;;24.27;33.91
51829;BME280;37881;48.024;8.774;2023-06-04T10:46:40;93957.44;;;22.30;37.15
51829;BME280;37881;48.024;8.774;2023-06-04T10:49:09;93938.69;;;25.00;33.07
51829;BME280;37881;48.024;8.774;2023-06-04T10:51:41;93931.56;;;26.25;32.26
51829;BME280;37881;48.024;8.774;2023-06-04T10:54:10;93938.03;;;26.67;30.87
51829;BME280;37881;48.024;8.774;2023-06-04T10:56:37;93939.13;;;24.65;33.02
51829;BME280;37881;48.024;8.774;2023-06-04T10:59:17;93937.41;;;24.96;33.21
51829;BME280;37881;48.024;8.774;2023-06-04T11:01:44;93941.16;;;23.44;35.67
51829;BME280;37881;48.024;8.774;2023-06-04T11:04:25;93941.63;;;21.86;38.07
51829;BME280;37881;48.024;8.774;2023-06-04T11:07:06;93946.16;;;22.45;37.79
51829;BME280;37881;48.024;8.774;2023-06-04T11:09:37;93938.38;;;24.59;35.25
51829;BME280;37881;48.024;8.774;2023-06-04T11:12:05;93927.44;;;25.45;33.42
51829;BME280;37881;48.024;8.774;2023-06-04T11:14:32;93925.03;;;25.95;32.38
51829;BME280;37881;48.024;8.774;2023-06-04T11:17:19;93930.34;;;26.09;32.25
51829;BME280;37881;48.024;8.774;2023-06-04T11:19:46;93935.25;;;23.80;35.47
51829;BME280;37881;48.024;8.774;2023-06-04T11:22:13;93937.31;;;23.42;36.90
51829;BME280;37881;48.024;8.774;2023-06-04T11:24:40;93944.25;;;23.15;36.78
51829;BME280;37881;48.024;8.774;2023-06-04T11:27:07;93932.75;;;24.64;34.07
51829;BME280;37881;48.024;8.774;2023-06-04T11:29:49;93925.66;;;25.31;33.22
51829;BME280;37881;48.024;8.774;2023-06-04T11:32:23;93931.78;;;25.58;33.04
51829;BME280;37881;48.024;8.774;2023-06-04T11:34:51;93930.19;;;25.90;32.30
51829;BME280;37881;48.024;8.774;2023-06-04T11:37:17;93924.03;;;26.50;31.89
51829;BME280;37881;48.024;8.774;2023-06-04T11:39:44;93920.34;;;26.20;31.24
51829;BME280;37881;48.024;8.774;2023-06-04T11:42:11;93929.34;;;24.32;33.72
51829;BME280;37881;48.024;8.774;2023-06-04T11:44:39;93932.91;;;21.99;39.13
51829;BME280;37881;48.024;8.774;2023-06-04T11:47:11;93924.56;;;22.77;37.76
51829;BME280;37881;48.024;8.774;2023-06-04T11:49:38;93926.34;;;24.47;35.78
51829;BME280;37881;48.024;8.774;2023-06-04T11:52:05;93925.22;;;24.16;35.91
51829;BME280;37881;48.024;8.774;2023-06-04T11:54:32;93913.97;;;23.99;35.27
51829;BME280;37881;48.024;8.774;2023-06-04T11:57:06;93915.91;;;24.59;35.30
51829;BME280;37881;48.024;8.774;2023-06-04T11:59:34;93910.84;;;25.47;33.50
51829;BME280;37881;48.024;8.774;2023-06-04T12:02:02;93908.41;;;26.02;33.43
51829;BME280;37881;48.024;8.774;2023-06-04T12:04:30;93912.00;;;25.91;33.32
51829;BME280;37881;48.024;8.774;2023-06-04T12:06:59;93916.34;;;24.23;35.40
51829;BME280;37881;48.024;8.774;2023-06-04T12:09:29;93920.38;;;22.93;37.90
51829;BME280;37881;48.024;8.774;2023-06-04T12:12:02;93920.06;;;22.85;38.28
51829;BME280;37881;48.024;8.774;2023-06-04T12:14:30;93913.47;;;23.58;35.63
51829;BME280;37881;48.024;8.774;2023-06-04T12:17:02;93895.72;;;24.38;35.45
51829;BME280;37881;48.024;8.774;2023-06-04T12:19:32;93899.56;;;24.46;33.68
51829;BME280;37881;48.024;8.774;2023-06-04T12:24:29;93898.50;;;25.67;32.96
51829;BME280;37881;48.024;8.774;2023-06-04T12:27:03;93903.59;;;25.80;32.53
51829;BME280;37881;48.024;8.774;2023-06-04T12:29:30;93895.56;;;25.31;33.31
51829;BME280;37881;48.024;8.774;2023-06-04T12:32:05;93901.16;;;25.20;34.17
51829;BME280;37881;48.024;8.774;2023-06-04T12:34:41;93907.78;;;23.03;37.58
51829;BME280;37881;48.024;8.774;2023-06-04T12:37:08;93920.31;;;22.29;38.83
51829;BME280;37881;48.024;8.774;2023-06-04T12:39:35;93919.44;;;22.70;38.56
51829;BME280;37881;48.024;8.774;2023-06-04T12:42:06;93925.88;;;22.50;38.45
51829;BME280;37881;48.024;8.774;2023-06-04T12:44:35;93929.03;;;23.21;37.39
51829;BME280;37881;48.024;8.774;2023-06-04T12:47:03;93925.75;;;22.65;38.30
51829;BME280;37881;48.024;8.774;2023-06-04T12:49:30;93922.00;;;22.73;38.13
51829;BME280;37881;48.024;8.774;2023-06-04T12:51:57;93924.31;;;22.49;39.22
51829;BME280;37881;48.024;8.774;2023-06-04T12:54:24;93919.13;;;21.95;39.36
51829;BME280;37881;48.024;8.774;2023-06-04T12:56:50;93926.44;;;23.12;37.33
51829;BME280;37881;48.024;8.774;2023-06-04T12:59:17;93928.56;;;21.98;39.83
51829;BME280;37881;48.024;8.774;2023-06-04T13:01:44;93913.44;;;22.83;37.72
51829;BME280;37881;48.024;8.774;2023-06-04T13:04:11;93912.31;;;22.43;38.01
51829;BME280;37881;48.024;8.774;2023-06-04T13:06:38;93900.69;;;24.00;35.67
51829;BME280;37881;48.024;8.774;2023-06-04T13:09:05;93892.09;;;24.20;34.96
51829;BME280;37881;48.024;8.774;2023-06-04T13:11:42;93900.38;;;24.75;34.30
51829;BME280;37881;48.024;8.774;2023-06-04T13:14:10;93892.69;;;25.60;33.04